Time;durP1;ratioP1;P1;durP2;ratioP2;P2;SDS_P1;SDS_P2;PMS_P1;PMS_P2;Temp;Humidity;BMP_temperature;BMP_pressure;BME280_temperature;BME280_humidity;BME280_pressure;Samples;Min_cycle;Max_cycle;Signal;HPM_P1;HPM_P2
2023/10/11 00:00:56;;;;;;;27.00;11.27;;;;;;;17.92;95.55;101023.16;7357212;19;20028;-66
2023/10/11 00:05:50;;;;;;;26.35;12.07;;;;;;;17.86;95.05;101035.41;7357295;19;20021;-66
2023/10/11 00:08:17;;;;;;;22.10;11.20;;;;;;;17.85;95.18;101033.75;7355887;19;20748;-67
2023/10/11 00:10:53;;;;;;;22.08;11.45;;;;;;;17.83;95.29;101032.28;7352845;19;20562;-66
2023/10/11 00:13:23;;;;;;;19.65;10.52;;;;;;;17.75;95.14;101017.31;7353356;19;20018;-67
2023/10/11 00:15:52;;;;;;;24.70;11.00;;;;;;;17.70;95.33;101017.06;7356789;19;20014;-65
2023/10/11 00:18:21;;;;;;;26.02;11.00;;;;;;;17.73;96.30;101018.50;7357215;19;20026;-65
2023/10/11 00:20:51;;;;;;;21.58;10.68;;;;;;;17.75;96.14;101013.81;7355781;19;20041;-66
2023/10/11 00:23:22;;;;;;;23.02;11.05;;;;;;;17.75;95.96;101011.97;7354202;19;20013;-65
2023/10/11 00:25:51;;;;;;;24.65;10.85;;;;;;;17.80;95.86;101022.88;7357590;19;20424;-65
2023/10/11 00:28:24;;;;;;;25.27;11.43;;;;;;;17.79;95.42;101015.06;7356712;19;20638;-65
2023/10/11 00:30:55;;;;;;;24.38;11.57;;;;;;;17.79;96.52;101034.53;7355110;19;20117;-64
2023/10/11 00:33:23;;;;;;;23.35;10.85;;;;;;;17.76;95.84;101026.94;7353278;19;20011;-65
2023/10/11 00:36:05;;;;;;;23.30;11.00;;;;;;;17.77;95.77;101025.09;7357207;19;20011;-65
2023/10/11 00:38:42;;;;;;;25.00;10.98;;;;;;;17.76;95.56;101021.63;7356346;19;20026;-66
2023/10/11 00:41:17;;;;;;;24.23;11.38;;;;;;;17.76;95.69;101008.31;7356602;19;20014;-66
2023/10/11 00:43:52;;;;;;;24.15;11.30;;;;;;;17.79;95.70;101015.06;7356111;19;20020;-65
2023/10/11 00:46:24;;;;;;;28.95;11.38;;;;;;;17.80;95.75;101024.72;7357322;19;21145;-66
2023/10/11 00:48:53;;;;;;;23.92;10.85;;;;;;;17.83;96.48;101042.94;7355277;19;20015;-66
2023/10/11 00:51:25;;;;;;;24.95;11.18;;;;;;;17.88;95.72;101040.50;7354488;19;20701;-65
2023/10/11 00:53:53;;;;;;;20.83;9.98;;;;;;;17.86;95.15;101038.06;7353310;19;20110;-66
2023/10/11 00:56:20;;;;;;;24.25;10.38;;;;;;;17.81;95.29;101024.53;7357244;19;20833;-65
2023/10/11 00:58:52;;;;;;;22.30;10.52;;;;;;;17.80;95.60;101036.19;7353081;19;20017;-66
2023/10/11 01:01:22;;;;;;;17.70;9.75;;;;;;;17.82;95.84;101050.13;7362619;19;20014;-65
2023/10/11 01:03:49;;;;;;;22.40;11.63;;;;;;;17.83;96.29;101029.63;7361804;19;20014;-65
2023/10/11 01:06:17;;;;;;;30.13;11.52;;;;;;;17.85;96.17;101030.28;7362847;19;20027;-66
2023/10/11 01:08:48;;;;;;;25.65;11.07;;;;;;;17.85;95.56;101024.94;7361419;19;20014;-66
2023/10/11 01:11:15;;;;;;;24.20;10.80;;;;;;;17.81;95.53;101021.84;7358662;19;20172;-66
2023/10/11 01:13:43;;;;;;;21.98;10.88;;;;;;;17.81;95.88;101027.19;7354256;19;20014;-66
2023/10/11 01:16:11;;;;;;;21.83;10.10;;;;;;;17.81;95.92;101013.88;7361459;19;20018;-65
2023/10/11 01:18:39;;;;;;;21.17;10.32;;;;;;;17.81;95.77;101023.69;7361328;19;20015;-65
2023/10/11 01:21:07;;;;;;;22.38;10.25;;;;;;;17.84;96.26;101023.28;7362796;19;20031;-66
2023/10/11 01:23:35;;;;;;;22.25;9.73;;;;;;;17.90;96.78;101022.53;7358844;19;20015;-66
2023/10/11 01:26:09;;;;;;;23.52;10.68;;;;;;;17.93;96.00;101027.44;7362260;19;20011;-66
2023/10/11 01:28:44;;;;;;;23.17;10.38;;;;;;;17.98;95.06;101014.34;7359449;19;20022;-66
2023/10/11 01:31:16;;;;;;;24.65;10.63;;;;;;;17.96;95.20;101003.09;7361145;19;20023;-65
2023/10/11 01:33:49;;;;;;;21.92;10.75;;;;;;;17.94;94.72;101007.78;7360627;19;20523;-66
2023/10/11 01:36:21;;;;;;;21.25;9.90;;;;;;;17.90;94.78;101003.88;7360106;19;20562;-65
2023/10/11 01:38:48;;;;;;;20.83;11.33;;;;;;;17.88;95.42;100993.41;7360305;19;20432;-66
2023/10/11 01:41:26;;;;;;;20.88;9.95;;;;;;;17.89;96.30;100991.56;7361074;19;20279;-66
2023/10/11 01:43:56;;;;;;;24.50;9.73;;;;;;;17.95;95.94;100993.47;7359552;19;20032;-65
2023/10/11 01:46:26;;;;;;;19.58;9.98;;;;;;;17.98;95.39;100982.41;7361110;19;20617;-66
2023/10/11 01:48:55;;;;;;;20.77;9.15;;;;;;;18.01;95.29;100984.69;7360273;19;20014;-65
2023/10/11 01:51:29;;;;;;;18.98;9.00;;;;;;;18.00;94.51;100974.22;7358785;19;20422;-65
2023/10/11 01:54:00;;;;;;;24.15;10.43;;;;;;;17.98;95.26;100968.28;7361135;19;20086;-66
2023/10/11 01:56:28;;;;;;;20.35;9.63;;;;;;;17.98;95.30;100969.09;7361310;19;20526;-66
2023/10/11 01:59:01;;;;;;;22.83;9.80;;;;;;;18.03;94.98;100965.84;7358463;19;20385;-66
2023/10/11 02:01:38;;;;;;;19.20;8.80;;;;;;;18.01;94.84;100967.88;7356718;19;21232;-66
2023/10/11 02:04:29;;;;;;;20.80;9.82;;;;;;;18.01;94.54;100950.06;7357163;19;20086;-65
2023/10/11 02:06:57;;;;;;;17.85;9.13;;;;;;;18.02;95.04;100959.72;7357722;19;20122;-65
2023/10/11 02:09:24;;;;;;;21.20;9.15;;;;;;;18.06;95.82;100955.63;7360547;19;20018;-66
2023/10/11 02:11:54;;;;;;;19.65;9.10;;;;;;;18.03;95.38;100952.53;7356881;19;20027;-65
2023/10/11 02:14:23;;;;;;;19.08;9.00;;;;;;;18.00;95.17;100955.59;7351025;19;20015;-65
2023/10/11 02:16:53;;;;;;;19.80;8.60;;;;;;;17.95;95.22;100957.00;7359371;19;20026;-66
2023/10/11 02:19:23;;;;;;;20.25;9.02;;;;;;;17.99;95.57;100952.09;7359727;19;20038;-66
2023/10/11 02:21:53;;;;;;;19.63;9.43;;;;;;;18.01;95.73;100955.41;7362067;19;20019;-65
2023/10/11 02:24:20;;;;;;;19.90;8.80;;;;;;;17.94;95.55;100952.69;7360810;19;20593;-64
2023/10/11 02:26:49;;;;;;;21.15;9.05;;;;;;;17.99;97.19;100951.28;7359097;19;20584;-65
2023/10/11 02:29:21;;;;;;;21.15;9.05;;;;;;;18.00;96.78;100942.28;7358032;19;20015;-64
2023/10/11 02:31:53;;;;;;;19.33;8.73;;;;;;;17.98;96.53;100950.44;7358074;19;20010;-67
2023/10/11 02:34:21;;;;;;;15.98;8.02;;;;;;;17.97;96.20;100940.84;7358340;19;20551;-65
2023/10/11 02:37:05;;;;;;;15.75;8.77;;;;;;;17.97;96.55;100932.84;7360041;19;20119;-66
2023/10/11 02:39:32;;;;;;;13.27;7.53;;;;;;;18.01;96.89;100928.75;7358413;19;20139;-65
2023/10/11 02:42:00;;;;;;;22.08;8.90;;;;;;;18.02;96.75;100937.59;7359315;19;20026;-65
2023/10/11 02:44:27;;;;;;;19.30;8.60;;;;;;;18.06;97.75;100929.00;7355721;19;20365;-65
2023/10/11 02:46:58;;;;;;;17.83;10.77;;;;;;;18.09;97.19;100930.41;7359408;19;20018;-65
2023/10/11 02:49:31;;;;;;;28.05;13.13;;;;;;;18.11;96.66;100915.06;7356279;19;20021;-66
2023/10/11 02:52:08;;;;;;;;;;;;;;;18.12;96.46;100914.88;7355842;19;20023;-64
2023/10/11 02:54:38;;;;;;;47.53;21.23;;;;;;;18.10;96.27;100908.91;7357653;19;19952;-65
2023/10/11 02:57:20;;;;;;;48.80;20.75;;;;;;;18.07;95.73;100911.16;7359355;19;20645;-65
2023/10/11 02:59:50;;;;;;;34.05;16.50;;;;;;;18.06;95.92;100914.84;7357127;19;20599;-64
2023/10/11 03:02:21;;;;;;;30.27;13.20;;;;;;;18.08;96.77;100907.50;7358435;19;20040;-65
2023/10/11 03:04:49;;;;;;;28.55;12.75;;;;;;;18.09;96.88;100909.94;7356885;19;20109;-65
2023/10/11 03:07:21;;;;;;;22.40;10.60;;;;;;;18.08;96.70;100902.97;7356111;19;20953;-65
2023/10/11 03:09:50;;;;;;;23.80;10.30;;;;;;;18.10;96.54;100906.25;7357614;19;20034;-66
2023/10/11 03:12:38;;;;;;;21.25;9.65;;;;;;;18.10;96.50;100900.09;7355753;19;20101;-65
2023/10/11 03:15:08;;;;;;;20.50;8.90;;;;;;;18.06;96.80;100896.22;7354576;19;20047;-65
2023/10/11 03:17:43;;;;;;;24.10;9.82;;;;;;;18.07;96.50;100896.00;7357205;19;20026;-64
2023/10/11 03:23:04;;;;;;;20.30;9.18;;;;;;;18.14;97.92;100901.34;7356396;19;20026;-65
2023/10/11 03:25:35;;;;;;;20.42;8.95;;;;;;;18.11;96.65;100899.91;7356283;19;20061;-65
2023/10/11 03:28:03;;;;;;;19.05;9.48;;;;;;;18.03;96.95;100901.94;7356465;19;20019;-65
2023/10/11 03:30:35;;;;;;;17.27;8.57;;;;;;;18.04;97.37;100890.25;7357358;19;20007;-65
2023/10/11 03:33:03;;;;;;;21.42;9.23;;;;;;;18.06;97.39;100896.22;7356734;19;20106;-64
2023/10/11 03:35:34;;;;;;;18.02;9.23;;;;;;;18.04;97.58;100896.41;7358000;19;20010;-64
2023/10/11 03:38:01;;;;;;;23.55;9.55;;;;;;;18.08;97.59;100883.53;7358148;19;20042;-65
2023/10/11 03:40:54;;;;;;;18.40;8.52;;;;;;;18.12;98.03;100885.59;7357031;19;20038;-65
2023/10/11 03:43:18;;;;;;;22.27;9.23;;;;;;;18.12;97.61;100879.44;7354989;19;20010;-65
2023/10/11 03:45:49;;;;;;;17.05;7.88;;;;;;;18.13;97.40;100873.09;7356420;19;20383;-66
2023/10/11 03:48:20;;;;;;;18.73;8.90;;;;;;;18.11;97.60;100873.28;7356638;19;20015;-64
2023/10/11 03:50:51;;;;;;;19.27;8.25;;;;;;;18.12;97.49;100872.25;7356579;19;20334;-65
2023/10/11 03:53:19;;;;;;;24.95;9.93;;;;;;;18.16;98.35;100878.81;7354864;19;20138;-65
2023/10/11 03:55:47;;;;;;;16.40;7.63;;;;;;;18.17;98.24;100877.00;7356446;19;20097;-64
2023/10/11 03:58:32;;;;;;;16.27;7.72;;;;;;;18.19;98.07;100872.25;7357002;19;20561;-66
2023/10/11 04:01:47;;;;;;;19.15;7.55;;;;;;;18.18;97.55;100879.47;7359338;19;20251;-65
2023/10/11 04:03:50;;;;;;;20.40;7.20;;;;;;;18.18;98.04;100875.97;7355056;19;20042;-65
2023/10/11 04:06:19;;;;;;;15.95;7.45;;;;;;;18.17;97.82;100871.66;7357943;19;21994;-65
2023/10/11 04:09:32;;;;;;;13.52;7.60;;;;;;;18.16;97.98;100875.34;7356553;19;20007;-65
2023/10/11 04:11:38;;;;;;;18.00;7.47;;;;;;;18.16;98.40;100878.00;7351556;19;20015;-65
2023/10/11 04:14:14;;;;;;;14.60;7.50;;;;;;;18.17;98.32;100884.97;7351796;19;20093;-64
2023/10/11 04:16:44;;;;;;;14.25;6.80;;;;;;;18.18;98.40;100883.97;7353094;19;20422;-65
2023/10/11 04:19:12;;;;;;;19.30;6.57;;;;;;;18.22;98.73;100888.69;7356104;19;20590;-66
2023/10/11 04:21:54;;;;;;;14.27;7.32;;;;;;;18.24;98.50;100891.13;7358591;19;20042;-67
2023/10/11 04:24:22;;;;;;;13.88;6.70;;;;;;;18.30;99.26;100887.66;7352723;19;20677;-66
2023/10/11 04:27:45;;;;;;;16.80;6.57;;;;;;;18.30;99.43;100891.16;7356866;19;20477;-66
2023/10/11 04:29:45;;;;;;;18.33;7.32;;;;;;;18.29;98.47;100892.16;7353525;19;20014;-64
2023/10/11 04:32:32;;;;;;;14.63;7.13;;;;;;;18.30;98.81;100882.34;7355778;19;20014;-64
2023/10/11 04:34:59;;;;;;;17.55;6.07;;;;;;;18.31;98.63;100883.97;7354871;19;20038;-66
2023/10/11 04:37:33;;;;;;;16.27;6.72;;;;;;;18.30;98.94;100880.50;7355895;19;20523;-65
2023/10/11 04:43:05;;;;;;;8.23;5.55;;;;;;;18.40;99.52;100880.09;7346825;19;20021;-65
2023/10/11 04:45:45;;;;;;;12.57;5.35;;;;;;;18.38;99.03;100877.66;7352830;19;20013;-64
2023/10/11 04:48:16;;;;;;;;;;;;;;;18.42;99.02;100879.91;7353616;19;21093;-66
2023/10/11 04:50:47;;;;;;;11.63;5.03;;;;;;;18.42;99.05;100880.72;7354413;19;19922;-65
2023/10/11 04:53:18;;;;;;;13.27;5.05;;;;;;;18.44;98.97;100888.53;7355408;19;20693;-65
2023/10/11 04:55:47;;;;;;;11.27;5.43;;;;;;;18.45;99.47;100890.16;7353935;19;20610;-66
2023/10/11 04:59:05;;;;;;;10.15;5.13;;;;;;;18.45;99.45;100877.66;7353321;19;20025;-66
2023/10/11 05:01:08;;;;;;;12.52;5.15;;;;;;;18.46;99.60;100879.28;7352401;19;20118;-64
2023/10/11 05:03:38;;;;;;;13.02;5.15;;;;;;;18.48;99.49;100868.44;7354277;19;20618;-66
2023/10/11 05:06:30;;;;;;;13.32;4.60;;;;;;;18.50;99.53;100871.69;7355036;19;20019;-65
2023/10/11 05:11:53;;;;;;;11.82;4.30;;;;;;;18.49;99.46;100864.75;7353231;19;20075;-65
2023/10/11 05:20:07;;;;;;;8.80;4.20;;;;;;;18.53;99.85;100871.31;7355156;19;21449;-64
2023/10/11 05:25:16;;;;;;;11.63;4.03;;;;;;;18.59;99.38;100862.53;7356084;19;20010;-65
2023/10/11 05:31:00;;;;;;;10.40;5.28;;;;;;;18.61;99.58;100852.47;7348163;19;20375;-66
2023/10/11 05:53:13;;;;;;;10.82;4.18;;;;;;;18.77;100.00;100871.56;7356016;19;20018;-65
2023/10/11 05:55:41;;;;;;;12.02;3.55;;;;;;;18.78;99.85;100870.53;7360084;19;20018;-66
2023/10/11 05:58:08;;;;;;;9.90;3.60;;;;;;;18.77;99.27;100878.75;7359033;19;20106;-66
2023/10/11 06:00:38;;;;;;;14.80;3.85;;;;;;;18.77;99.38;100886.75;7360762;19;20038;-65
2023/10/11 06:03:06;;;;;;;9.35;3.65;;;;;;;18.75;99.78;100876.25;7360851;19;20003;-66
2023/10/11 06:05:39;;;;;;;8.32;3.42;;;;;;;18.76;99.65;100890.41;7359420;19;20042;-65
2023/10/11 06:08:15;;;;;;;10.90;4.05;;;;;;;18.78;99.44;100883.06;7359939;19;20022;-65
2023/10/11 06:10:43;;;;;;;11.90;3.92;;;;;;;18.80;99.83;100886.31;7360877;19;20426;-64
2023/10/11 06:13:15;;;;;;;10.25;3.33;;;;;;;18.82;100.00;100897.59;7354075;19;20089;-65
2023/10/11 06:15:58;;;;;;;12.55;3.83;;;;;;;18.84;99.68;100884.91;7357467;19;20496;-65
2023/10/11 06:18:42;;;;;;;11.38;3.95;;;;;;;18.86;99.89;100884.69;7355564;19;20022;-66
2023/10/11 06:21:56;;;;;;;9.35;3.40;;;;;;;18.85;99.86;100891.84;7359098;19;20015;-67
2023/10/11 06:24:07;;;;;;;8.05;3.03;;;;;;;18.88;100.00;100888.78;7359515;19;20566;-66
2023/10/11 06:29:07;;;;;;;11.57;4.05;;;;;;;18.94;100.00;100906.66;7361279;19;20086;-66
2023/10/11 06:31:43;;;;;;;10.85;3.95;;;;;;;18.96;99.93;100899.25;7357530;19;20022;-65
2023/10/11 06:34:26;;;;;;;9.60;3.63;;;;;;;18.99;99.51;100893.50;7358719;19;20020;-64
2023/10/11 06:36:54;;;;;;;9.15;3.90;;;;;;;19.03;99.69;100891.25;7360324;19;20019;-66
2023/10/11 06:42:13;;;;;;;10.55;4.18;;;;;;;19.12;99.92;100906.00;7360239;19;20003;-66
2023/10/11 06:44:41;;;;;;;10.88;4.25;;;;;;;19.14;99.62;100918.13;7357672;19;20686;-65
2023/10/11 06:47:11;;;;;;;13.35;4.45;;;;;;;19.17;99.18;100924.88;7360518;19;21363;-65
2023/10/11 06:49:44;;;;;;;8.30;4.00;;;;;;;19.19;99.35;100921.00;7356677;19;20026;-66
2023/10/11 06:52:25;;;;;;;12.38;4.32;;;;;;;19.22;98.79;100917.91;7359408;19;20105;-65
2023/10/11 06:57:41;;;;;;;8.95;4.32;;;;;;;19.23;98.41;100924.88;7355896;19;20006;-66
2023/10/11 07:00:21;;;;;;;11.15;4.50;;;;;;;19.23;99.24;100929.41;7358119;19;20022;-65
2023/10/11 07:02:53;;;;;;;13.73;5.57;;;;;;;19.23;98.72;100919.56;7358416;19;20018;-66
2023/10/11 07:05:25;;;;;;;11.02;4.50;;;;;;;19.25;99.18;100923.88;7357055;19;20022;-67
2023/10/11 07:07:54;;;;;;;9.98;4.50;;;;;;;19.23;98.87;100924.88;7355645;19;20436;-68
2023/10/11 07:10:32;;;;;;;14.05;4.32;;;;;;;19.23;98.58;100916.06;7357348;19;20076;-65
2023/10/11 07:13:03;;;;;;;14.65;4.85;;;;;;;19.26;99.21;100912.13;7352292;19;20010;-65
2023/10/11 07:15:44;;;;;;;13.77;4.72;;;;;;;19.32;99.88;100920.16;7356669;19;20038;-66
2023/10/11 07:18:25;;;;;;;11.65;4.47;;;;;;;19.38;99.02;100923.84;7351160;19;22890;-65
2023/10/11 07:21:10;;;;;;;13.07;4.50;;;;;;;19.38;99.00;100916.66;7359989;19;20025;-66
2023/10/11 07:27:08;;;;;;;13.43;4.72;;;;;;;19.42;98.48;100915.19;7356748;19;20020;-65
2023/10/11 07:29:13;;;;;;;12.38;4.82;;;;;;;19.47;98.77;100919.94;7352826;19;20118;-65
2023/10/11 07:31:48;;;;;;;10.27;3.70;;;;;;;19.51;99.11;100910.47;7357568;19;20077;-65
2023/10/11 07:34:25;;;;;;;12.00;4.30;;;;;;;19.54;98.62;100916.25;7355059;19;20011;-65
2023/10/11 07:36:52;;;;;;;10.57;4.13;;;;;;;19.55;98.44;100911.72;7357896;19;20392;-64
2023/10/11 07:39:20;;;;;;;11.20;4.30;;;;;;;19.55;98.59;100922.41;7356194;19;20048;-64
2023/10/11 07:41:49;;;;;;;11.63;3.90;;;;;;;19.58;98.25;100927.31;7356598;19;20022;-66
2023/10/11 07:44:19;;;;;;;19.00;5.38;;;;;;;19.58;98.27;100928.13;7352935;19;20658;-65
2023/10/11 07:46:48;;;;;;;17.27;5.90;;;;;;;19.60;98.88;100933.28;7357609;19;20134;-64
2023/10/11 07:49:22;;;;;;;16.50;4.63;;;;;;;19.62;99.16;100941.88;7355784;19;20035;-65
2023/10/11 07:51:58;;;;;;;15.35;4.38;;;;;;;19.61;98.73;100927.72;7359045;19;20038;-68
2023/10/11 07:54:26;;;;;;;21.02;4.75;;;;;;;19.62;98.55;100934.69;7355280;19;20014;-65
2023/10/11 07:56:57;;;;;;;13.75;4.15;;;;;;;19.65;98.73;100930.81;7354574;19;20021;-65
2023/10/11 07:59:26;;;;;;;;;;;;;;;19.64;98.29;100924.63;7350265;19;20018;-65
2023/10/11 08:01:54;;;;;;;16.17;4.30;;;;;;;19.63;98.75;100928.31;7358918;19;19926;-65
2023/10/11 08:04:28;;;;;;;12.70;4.88;;;;;;;19.64;99.01;100927.31;7355472;19;20051;-66
2023/10/11 08:07:12;;;;;;;14.40;4.70;;;;;;;19.63;98.92;100935.53;7354022;19;20070;-66
2023/10/11 08:09:52;;;;;;;11.25;4.30;;;;;;;19.62;99.04;100928.53;7354121;19;20031;-65
2023/10/11 08:12:23;;;;;;;13.65;4.95;;;;;;;19.64;99.48;100926.47;7355834;19;20026;-65
2023/10/11 08:14:56;;;;;;;10.87;5.03;;;;;;;19.63;99.19;100931.00;7354417;19;20014;-65
2023/10/11 08:17:29;;;;;;;15.63;4.40;;;;;;;19.64;99.35;100924.63;7356468;19;20018;-64
2023/10/11 08:19:59;;;;;;;11.63;4.13;;;;;;;19.69;99.91;100913.31;7352099;19;20018;-65
2023/10/11 08:22:28;;;;;;;14.82;4.78;;;;;;;19.75;99.89;100906.31;7357444;19;20399;-65
2023/10/11 08:24:59;;;;;;;13.68;3.97;;;;;;;19.77;99.30;100906.91;7353124;19;20551;-66
2023/10/11 08:27:29;;;;;;;15.88;4.60;;;;;;;19.79;99.39;100899.53;7356201;19;20155;-65
2023/10/11 08:30:17;;;;;;;10.63;4.47;;;;;;;19.83;99.10;100900.72;7354669;19;20019;-65
2023/10/11 08:32:47;;;;;;;15.20;5.03;;;;;;;19.83;98.91;100901.56;7355568;19;20046;-66
2023/10/11 08:35:31;;;;;;;16.65;5.60;;;;;;;19.84;99.36;100900.53;7354601;19;20015;-65
2023/10/11 08:38:05;;;;;;;11.27;5.68;;;;;;;19.91;99.46;100906.66;7354846;19;20019;-66
2023/10/11 08:40:36;;;;;;;11.73;4.97;;;;;;;19.96;99.09;100908.72;7354656;19;20026;-65
2023/10/11 08:43:06;;;;;;;14.23;4.82;;;;;;;19.97;98.45;100911.16;7354290;19;20093;-65
2023/10/11 08:45:47;;;;;;;13.27;4.93;;;;;;;20.00;98.56;100908.06;7354030;19;20064;-64
2023/10/11 08:48:15;;;;;;;13.63;5.07;;;;;;;19.98;98.54;100902.09;7354411;19;20029;-65
2023/10/11 08:50:51;;;;;;;11.82;4.65;;;;;;;19.99;98.76;100898.41;7347794;19;20089;-65
2023/10/11 08:53:24;;;;;;;11.52;5.20;;;;;;;20.05;98.83;100904.75;7354821;19;20021;-65
2023/10/11 08:56:02;;;;;;;12.75;5.53;;;;;;;20.07;99.15;100905.34;7356707;19;20845;-66
2023/10/11 08:58:29;;;;;;;14.02;4.75;;;;;;;20.09;98.49;100897.94;7356238;19;20573;-66
2023/10/11 09:00:59;;;;;;;15.45;5.18;;;;;;;20.10;98.24;100904.13;7354502;19;20019;-65
2023/10/11 09:03:31;;;;;;;11.75;4.97;;;;;;;20.10;97.95;100890.75;7351693;19;20011;-64
2023/10/11 09:05:59;;;;;;;10.93;5.20;;;;;;;20.06;98.32;100885.03;7354477;19;20428;-65
2023/10/11 09:08:35;;;;;;;14.38;4.80;;;;;;;20.06;98.22;100891.16;7330438;19;20475;-66
2023/10/11 09:11:05;;;;;;;10.00;4.68;;;;;;;20.04;97.49;100885.22;7349308;19;20680;-65
2023/10/11 09:13:36;;;;;;;9.52;4.63;;;;;;;20.06;98.40;100885.03;7349469;19;21940;-65
2023/10/11 09:16:12;;;;;;;12.43;4.30;;;;;;;20.03;97.78;100886.25;7353685;19;20018;-66
2023/10/11 09:18:46;;;;;;;14.45;4.47;;;;;;;20.03;97.95;100878.25;7354638;19;20026;-65
2023/10/11 09:21:23;;;;;;;11.77;4.68;;;;;;;20.03;98.12;100883.59;7352502;19;20014;-65
2023/10/11 09:23:51;;;;;;;8.27;3.78;;;;;;;20.06;97.90;100882.34;7366767;19;20025;-66
2023/10/11 09:26:35;;;;;;;11.52;4.57;;;;;;;20.06;97.91;100883.16;7367168;19;20025;-65
2023/10/11 09:29:05;;;;;;;12.63;4.63;;;;;;;20.08;98.38;100881.09;7362198;19;20018;-65
2023/10/11 09:31:39;;;;;;;12.60;4.30;;;;;;;20.10;97.60;100883.56;7367882;19;20022;-65
2023/10/11 09:34:07;;;;;;;8.80;3.83;;;;;;;20.11;97.70;100876.38;7363213;19;20022;-67
2023/10/11 09:36:34;;;;;;;10.90;4.00;;;;;;;20.14;97.54;100873.25;7360038;19;20670;-66
2023/10/11 09:39:03;;;;;;;12.20;4.13;;;;;;;20.19;98.26;100876.09;7360283;19;20420;-65
2023/10/11 09:41:39;;;;;;;8.85;4.20;;;;;;;20.20;97.87;100880.41;7361526;19;20468;-65
2023/10/11 09:44:10;;;;;;;10.88;3.50;;;;;;;20.20;97.36;100883.09;7358797;19;20344;-66
2023/10/11 09:46:38;;;;;;;11.05;4.28;;;;;;;20.20;97.16;100875.91;7361315;19;20849;-66
2023/10/11 09:49:12;;;;;;;9.88;3.58;;;;;;;20.22;96.98;100886.34;7360076;19;20364;-65
2023/10/11 09:51:46;;;;;;;12.05;4.07;;;;;;;20.22;97.22;100876.50;7364085;19;20735;-64
2023/10/11 09:54:19;;;;;;;13.63;4.00;;;;;;;20.24;96.73;100873.59;7360764;19;20014;-64
2023/10/11 09:56:50;;;;;;;12.68;4.75;;;;;;;20.25;96.58;100869.91;7360315;19;20089;-64
2023/10/11 09:59:35;;;;;;;11.23;4.00;;;;;;;20.26;96.56;100858.19;7358407;19;20010;-64
2023/10/11 10:02:24;;;;;;;10.43;4.20;;;;;;;20.29;96.46;100860.41;7359980;19;20118;-66
2023/10/11 10:04:51;;;;;;;12.05;4.05;;;;;;;20.25;95.65;100869.91;7348389;19;20015;-66
2023/10/11 10:07:25;;;;;;;12.85;4.22;;;;;;;20.22;95.72;100881.84;7361316;19;20014;-65
2023/10/11 10:09:58;;;;;;;10.95;3.95;;;;;;;20.22;95.77;100873.81;7355400;19;20074;-66
2023/10/11 10:12:35;;;;;;;10.73;4.40;;;;;;;20.19;95.67;100879.59;7359112;19;20385;-65
2023/10/11 10:15:23;;;;;;;13.32;4.40;;;;;;;20.16;96.36;100882.72;7360596;19;20015;-66
2023/10/11 10:17:56;;;;;;;9.15;4.47;;;;;;;20.20;96.37;100885.78;7361131;19;20049;-64
2023/10/11 10:20:46;;;;;;;11.23;4.75;;;;;;;20.18;95.56;100893.16;7356686;19;20013;-66
2023/10/11 10:23:16;;;;;;;13.52;5.20;;;;;;;20.16;95.79;100896.06;7353188;19;20044;-65
2023/10/11 10:26:13;;;;;;;12.80;4.68;;;;;;;20.20;96.06;100902.63;7359044;19;20491;-65
2023/10/11 10:28:42;;;;;;;18.13;6.25;;;;;;;20.21;96.17;100898.09;7357514;19;20022;-65
2023/10/11 10:31:13;;;;;;;12.88;4.13;;;;;;;20.21;96.09;100895.44;7359449;19;20022;-64
2023/10/11 10:33:42;;;;;;;14.02;4.68;;;;;;;20.19;95.70;100886.78;7355473;19;20007;-65
2023/10/11 10:36:21;;;;;;;22.10;6.32;;;;;;;20.23;96.28;100888.00;7361164;19;20044;-65
2023/10/11 10:41:36;;;;;;;11.75;4.85;;;;;;;20.30;95.80;100872.75;7358529;19;20858;-65
2023/10/11 10:44:17;;;;;;;11.98;5.35;;;;;;;20.36;95.78;100879.94;7355454;19;20014;-64
2023/10/11 10:46:55;;;;;;;10.80;5.68;;;;;;;20.39;95.55;100879.50;7356340;19;20025;-64
2023/10/11 10:49:42;;;;;;;11.85;5.43;;;;;;;20.40;95.30;100871.28;7355696;19;20019;-66
2023/10/11 10:52:16;;;;;;;12.07;5.60;;;;;;;20.44;94.96;100874.34;7355065;19;20482;-65
2023/10/11 10:55:07;;;;;;;16.67;5.35;;;;;;;20.49;94.92;100864.63;7345191;19;20630;-65
2023/10/11 10:57:39;;;;;;;13.70;5.35;;;;;;;20.49;94.92;100869.97;7356694;19;20110;-65
2023/10/11 11:00:20;;;;;;;11.25;5.00;;;;;;;20.48;95.06;100862.16;7355622;19;20011;-65
2023/10/11 11:02:56;;;;;;;11.20;5.53;;;;;;;20.52;94.74;100859.91;7347725;19;20041;-66
2023/10/11 11:05:29;;;;;;;;;;;;;;;20.49;94.39;100856.59;7349013;19;20018;-67
2023/10/11 11:08:21;;;;;;;14.18;5.90;;;;;;;20.47;94.08;100856.00;7353931;19;20031;-66
2023/10/11 11:10:54;;;;;;;9.80;5.55;;;;;;;20.45;93.81;100857.25;7354565;19;20022;-65
2023/10/11 11:13:25;;;;;;;14.05;5.90;;;;;;;20.47;93.82;100842.63;7353069;19;20011;-65
2023/10/11 11:15:55;;;;;;;12.20;5.65;;;;;;;20.49;93.85;100842.41;7355059;19;20021;-64
2023/10/11 11:18:33;;;;;;;10.73;5.90;;;;;;;20.56;93.19;100843.19;7353772;19;20027;-65
2023/10/11 11:21:17;;;;;;;13.35;5.97;;;;;;;20.61;93.13;100840.69;7354370;19;20027;-65
2023/10/11 11:23:54;;;;;;;12.30;6.32;;;;;;;20.68;92.25;100830.75;7353284;19;20025;-65
2023/10/11 11:26:23;;;;;;;13.77;5.95;;;;;;;20.74;92.18;100840.56;7358288;19;20781;-66
2023/10/11 11:29:08;;;;;;;12.05;5.72;;;;;;;20.82;91.94;100840.31;7354611;19;20526;-64
2023/10/11 11:31:52;;;;;;;16.92;6.30;;;;;;;20.89;91.47;100829.53;7358640;19;20019;-66
2023/10/11 11:34:37;;;;;;;14.75;6.65;;;;;;;20.93;91.57;100828.03;7354821;19;20566;-64
2023/10/11 11:37:06;;;;;;;14.15;6.22;;;;;;;20.99;90.62;100831.69;7358580;19;20572;-66
2023/10/11 11:39:51;;;;;;;14.73;4.93;;;;;;;21.02;89.81;100823.25;7357674;19;20061;-70
2023/10/11 11:42:19;;;;;;;14.07;6.13;;;;;;;21.01;89.25;100822.41;7354427;19;20026;-65
2023/10/11 11:44:47;;;;;;;15.35;5.90;;;;;;;21.04;88.95;100830.00;7354388;19;20319;-66
2023/10/11 11:47:21;;;;;;;15.63;6.63;;;;;;;21.05;89.05;100828.13;7355521;19;20010;-66
2023/10/11 11:49:53;;;;;;;17.88;6.45;;;;;;;21.06;89.42;100819.91;7355096;19;20053;-64
2023/10/11 11:52:21;;;;;;;14.98;6.07;;;;;;;21.06;88.98;100813.72;7357061;19;20015;-64
2023/10/11 11:54:49;;;;;;;15.10;6.30;;;;;;;21.07;89.01;100802.81;7353934;19;20014;-65
2023/10/11 11:57:16;;;;;;;18.80;5.55;;;;;;;21.09;88.87;100797.22;7356072;19;20122;-65
2023/10/11 11:59:43;;;;;;;14.43;6.20;;;;;;;21.13;89.25;100801.09;7354610;19;20006;-65
2023/10/11 12:02:16;;;;;;;18.83;6.15;;;;;;;21.14;88.98;100808.91;7356946;19;20056;-66
2023/10/11 12:04:44;;;;;;;22.02;6.35;;;;;;;21.16;89.09;100806.03;7356104;19;20026;-65
2023/10/11 12:07:11;;;;;;;19.08;6.15;;;;;;;21.16;87.79;100803.34;7356426;19;20014;-66
2023/10/11 12:09:39;;;;;;;21.10;6.32;;;;;;;21.12;86.82;100802.97;7356623;19;20816;-66
2023/10/11 12:12:25;;;;;;;15.45;5.85;;;;;;;21.13;86.36;100795.75;7354324;19;20030;-67
2023/10/11 12:14:53;;;;;;;16.23;5.35;;;;;;;21.12;85.59;100791.44;7352385;19;21924;-65
2023/10/11 12:17:20;;;;;;;16.13;5.80;;;;;;;21.16;86.46;100792.66;7356699;19;20105;-65
2023/10/11 12:19:53;;;;;;;18.10;6.22;;;;;;;21.17;86.32;100781.72;7354670;19;20007;-65
2023/10/11 12:22:24;;;;;;;19.35;5.55;;;;;;;21.19;85.87;100786.84;7354104;19;20475;-65
2023/10/11 12:24:51;;;;;;;20.90;6.75;;;;;;;21.21;85.61;100782.09;7353766;19;20010;-65
2023/10/11 12:27:20;;;;;;;23.77;6.93;;;;;;;21.23;84.60;100782.69;7357444;19;21681;-66
2023/10/11 12:29:50;;;;;;;19.48;5.60;;;;;;;21.24;83.93;100781.63;7351504;19;20048;-65
2023/10/11 12:32:44;;;;;;;20.33;6.47;;;;;;;21.28;84.28;100772.13;7355037;19;20010;-64
2023/10/11 12:35:12;;;;;;;21.23;6.97;;;;;;;21.29;83.80;100777.25;7354591;19;20015;-65
2023/10/11 12:37:43;;;;;;;21.35;6.03;;;;;;;21.33;83.60;100774.94;7355263;19;20015;-64
2023/10/11 12:40:14;;;;;;;15.43;6.47;;;;;;;21.36;83.91;100779.84;7355652;19;20018;-65